sensor_id;sensor_type;location;lat;lon;timestamp;P1;durP1;ratioP1;P2;durP2;ratioP2
43662;SDS011;74813;56.104;40.358;2024-03-06T00:02:09;5.18;;;1.33;;
43662;SDS011;74813;56.104;40.358;2024-03-06T00:04:41;5.70;;;1.40;;
43662;SDS011;74813;56.104;40.358;2024-03-06T00:07:15;4.72;;;1.50;;
43662;SDS011;74813;56.104;40.358;2024-03-06T00:09:47;6.47;;;1.30;;
43662;SDS011;74813;56.104;40.358;2024-03-06T00:12:20;5.13;;;1.42;;
43662;SDS011;74813;56.104;40.358;2024-03-06T00:14:52;8.38;;;2.08;;
43662;SDS011;74813;56.104;40.358;2024-03-06T00:17:25;5.00;;;1.20;;
43662;SDS011;74813;56.104;40.358;2024-03-06T00:19:57;5.28;;;1.48;;
43662;SDS011;74813;56.104;40.358;2024-03-06T00:22:29;5.97;;;1.48;;
43662;SDS011;74813;56.104;40.358;2024-03-06T00:25:02;4.88;;;1.27;;
43662;SDS011;74813;56.104;40.358;2024-03-06T00:27:36;4.90;;;1.40;;
43662;SDS011;74813;56.104;40.358;2024-03-06T00:30:08;4.40;;;1.30;;
43662;SDS011;74813;56.104;40.358;2024-03-06T00:32:41;4.55;;;1.38;;
43662;SDS011;74813;56.104;40.358;2024-03-06T00:35:13;5.03;;;1.40;;
43662;SDS011;74813;56.104;40.358;2024-03-06T00:37:46;6.88;;;1.70;;
43662;SDS011;74813;56.104;40.358;2024-03-06T00:40:18;7.18;;;1.90;;
43662;SDS011;74813;56.104;40.358;2024-03-06T00:42:50;4.80;;;1.42;;
43662;SDS011;74813;56.104;40.358;2024-03-06T00:45:23;6.13;;;1.40;;
43662;SDS011;74813;56.104;40.358;2024-03-06T00:47:56;11.65;;;2.10;;
43662;SDS011;74813;56.104;40.358;2024-03-06T00:50:28;5.75;;;1.55;;
43662;SDS011;74813;56.104;40.358;2024-03-06T00:53:00;6.53;;;1.55;;
43662;SDS011;74813;56.104;40.358;2024-03-06T00:55:33;5.93;;;1.65;;
43662;SDS011;74813;56.104;40.358;2024-03-06T00:58:05;5.40;;;1.23;;
43662;SDS011;74813;56.104;40.358;2024-03-06T01:00:38;5.38;;;1.70;;
43662;SDS011;74813;56.104;40.358;2024-03-06T01:03:10;4.80;;;1.52;;
43662;SDS011;74813;56.104;40.358;2024-03-06T01:05:42;5.72;;;1.50;;
43662;SDS011;74813;56.104;40.358;2024-03-06T01:08:15;5.35;;;1.45;;
43662;SDS011;74813;56.104;40.358;2024-03-06T01:10:47;5.20;;;1.58;;
43662;SDS011;74813;56.104;40.358;2024-03-06T01:13:19;4.93;;;1.40;;
43662;SDS011;74813;56.104;40.358;2024-03-06T01:15:52;4.72;;;1.20;;
43662;SDS011;74813;56.104;40.358;2024-03-06T01:18:25;4.85;;;1.35;;
43662;SDS011;74813;56.104;40.358;2024-03-06T01:20:57;4.63;;;1.67;;
43662;SDS011;74813;56.104;40.358;2024-03-06T01:23:29;6.00;;;1.60;;
43662;SDS011;74813;56.104;40.358;2024-03-06T01:26:02;4.85;;;1.60;;
43662;SDS011;74813;56.104;40.358;2024-03-06T01:28:35;5.90;;;1.75;;
43662;SDS011;74813;56.104;40.358;2024-03-06T01:31:07;8.10;;;2.60;;
43662;SDS011;74813;56.104;40.358;2024-03-06T01:33:39;5.82;;;1.80;;
43662;SDS011;74813;56.104;40.358;2024-03-06T01:36:12;9.02;;;2.67;;
43662;SDS011;74813;56.104;40.358;2024-03-06T01:38:44;6.93;;;2.50;;
43662;SDS011;74813;56.104;40.358;2024-03-06T01:41:16;7.60;;;2.80;;
43662;SDS011;74813;56.104;40.358;2024-03-06T01:43:49;9.35;;;2.97;;
43662;SDS011;74813;56.104;40.358;2024-03-06T01:46:21;6.63;;;1.73;;
43662;SDS011;74813;56.104;40.358;2024-03-06T01:48:53;7.00;;;2.47;;
43662;SDS011;74813;56.104;40.358;2024-03-06T01:51:26;8.82;;;2.00;;
43662;SDS011;74813;56.104;40.358;2024-03-06T01:53:58;8.20;;;3.47;;
43662;SDS011;74813;56.104;40.358;2024-03-06T01:56:33;10.77;;;2.70;;
43662;SDS011;74813;56.104;40.358;2024-03-06T01:59:07;8.15;;;2.30;;
43662;SDS011;74813;56.104;40.358;2024-03-06T02:01:39;7.50;;;2.28;;
43662;SDS011;74813;56.104;40.358;2024-03-06T02:04:12;8.50;;;2.17;;
43662;SDS011;74813;56.104;40.358;2024-03-06T02:06:45;7.18;;;2.20;;
43662;SDS011;74813;56.104;40.358;2024-03-06T02:09:18;6.40;;;2.35;;
43662;SDS011;74813;56.104;40.358;2024-03-06T02:11:50;6.22;;;1.75;;
43662;SDS011;74813;56.104;40.358;2024-03-06T02:14:23;6.05;;;1.70;;
43662;SDS011;74813;56.104;40.358;2024-03-06T02:16:55;6.28;;;2.03;;
43662;SDS011;74813;56.104;40.358;2024-03-06T02:19:38;5.93;;;1.90;;
43662;SDS011;74813;56.104;40.358;2024-03-06T02:22:14;7.05;;;1.65;;
43662;SDS011;74813;56.104;40.358;2024-03-06T02:24:47;7.00;;;1.83;;
43662;SDS011;74813;56.104;40.358;2024-03-06T02:27:20;7.38;;;1.50;;
43662;SDS011;74813;56.104;40.358;2024-03-06T02:29:52;7.20;;;1.70;;
43662;SDS011;74813;56.104;40.358;2024-03-06T02:32:25;7.68;;;1.90;;
43662;SDS011;74813;56.104;40.358;2024-03-06T02:34:57;6.68;;;1.60;;
43662;SDS011;74813;56.104;40.358;2024-03-06T02:37:29;7.82;;;2.28;;
43662;SDS011;74813;56.104;40.358;2024-03-06T02:40:02;5.88;;;1.60;;
43662;SDS011;74813;56.104;40.358;2024-03-06T02:42:34;5.18;;;1.60;;
43662;SDS011;74813;56.104;40.358;2024-03-06T02:45:07;6.15;;;1.70;;
43662;SDS011;74813;56.104;40.358;2024-03-06T02:47:40;7.18;;;1.67;;
43662;SDS011;74813;56.104;40.358;2024-03-06T02:50:12;6.15;;;1.40;;
43662;SDS011;74813;56.104;40.358;2024-03-06T02:52:45;7.70;;;1.85;;
43662;SDS011;74813;56.104;40.358;2024-03-06T02:55:17;8.48;;;1.77;;
43662;SDS011;74813;56.104;40.358;2024-03-06T02:57:51;5.75;;;1.48;;
43662;SDS011;74813;56.104;40.358;2024-03-06T03:00:23;6.72;;;1.30;;
43662;SDS011;74813;56.104;40.358;2024-03-06T03:02:56;5.18;;;1.50;;
43662;SDS011;74813;56.104;40.358;2024-03-06T03:05:28;6.40;;;1.45;;
43662;SDS011;74813;56.104;40.358;2024-03-06T03:08:00;5.63;;;1.73;;
43662;SDS011;74813;56.104;40.358;2024-03-06T03:10:33;5.70;;;1.45;;
43662;SDS011;74813;56.104;40.358;2024-03-06T03:13:05;5.82;;;1.83;;
43662;SDS011;74813;56.104;40.358;2024-03-06T03:15:37;6.55;;;2.00;;
43662;SDS011;74813;56.104;40.358;2024-03-06T03:18:10;5.68;;;1.48;;
43662;SDS011;74813;56.104;40.358;2024-03-06T03:20:42;6.95;;;1.48;;
43662;SDS011;74813;56.104;40.358;2024-03-06T03:23:15;6.10;;;1.67;;
43662;SDS011;74813;56.104;40.358;2024-03-06T03:25:50;14.73;;;2.00;;
43662;SDS011;74813;56.104;40.358;2024-03-06T03:28:23;7.57;;;1.30;;
43662;SDS011;74813;56.104;40.358;2024-03-06T03:30:55;7.00;;;1.30;;
43662;SDS011;74813;56.104;40.358;2024-03-06T03:33:27;8.30;;;1.83;;
43662;SDS011;74813;56.104;40.358;2024-03-06T03:36:00;8.27;;;1.77;;
43662;SDS011;74813;56.104;40.358;2024-03-06T03:38:32;7.88;;;1.75;;
43662;SDS011;74813;56.104;40.358;2024-03-06T03:41:08;12.40;;;2.85;;
43662;SDS011;74813;56.104;40.358;2024-03-06T03:43:41;9.73;;;1.77;;
43662;SDS011;74813;56.104;40.358;2024-03-06T03:46:14;11.82;;;2.55;;
43662;SDS011;74813;56.104;40.358;2024-03-06T03:48:46;10.85;;;1.85;;
43662;SDS011;74813;56.104;40.358;2024-03-06T03:51:19;6.50;;;1.42;;
43662;SDS011;74813;56.104;40.358;2024-03-06T03:53:51;6.82;;;1.40;;
43662;SDS011;74813;56.104;40.358;2024-03-06T03:56:23;6.25;;;1.48;;
43662;SDS011;74813;56.104;40.358;2024-03-06T03:58:56;10.35;;;1.45;;
43662;SDS011;74813;56.104;40.358;2024-03-06T04:01:29;6.95;;;1.42;;
43662;SDS011;74813;56.104;40.358;2024-03-06T04:04:01;4.90;;;1.60;;
43662;SDS011;74813;56.104;40.358;2024-03-06T04:06:33;8.77;;;1.75;;
43662;SDS011;74813;56.104;40.358;2024-03-06T04:09:06;9.65;;;2.25;;
43662;SDS011;74813;56.104;40.358;2024-03-06T04:11:38;10.32;;;1.85;;
43662;SDS011;74813;56.104;40.358;2024-03-06T04:14:11;9.75;;;1.92;;
43662;SDS011;74813;56.104;40.358;2024-03-06T04:16:43;8.45;;;1.80;;
43662;SDS011;74813;56.104;40.358;2024-03-06T04:19:15;8.45;;;2.83;;
43662;SDS011;74813;56.104;40.358;2024-03-06T04:21:48;15.75;;;4.90;;
43662;SDS011;74813;56.104;40.358;2024-03-06T04:24:20;14.73;;;3.25;;
43662;SDS011;74813;56.104;40.358;2024-03-06T04:26:52;10.15;;;2.63;;
43662;SDS011;74813;56.104;40.358;2024-03-06T04:29:25;5.70;;;1.20;;
43662;SDS011;74813;56.104;40.358;2024-03-06T04:31:57;6.93;;;1.95;;
43662;SDS011;74813;56.104;40.358;2024-03-06T04:34:29;9.70;;;3.25;;
43662;SDS011;74813;56.104;40.358;2024-03-06T04:37:02;10.57;;;3.33;;
43662;SDS011;74813;56.104;40.358;2024-03-06T04:39:34;7.47;;;1.67;;
43662;SDS011;74813;56.104;40.358;2024-03-06T04:42:06;8.02;;;2.38;;
43662;SDS011;74813;56.104;40.358;2024-03-06T04:44:39;10.38;;;1.90;;
43662;SDS011;74813;56.104;40.358;2024-03-06T04:47:11;10.52;;;1.92;;
43662;SDS011;74813;56.104;40.358;2024-03-06T04:49:44;11.43;;;2.90;;
43662;SDS011;74813;56.104;40.358;2024-03-06T04:52:16;20.40;;;2.42;;
43662;SDS011;74813;56.104;40.358;2024-03-06T04:54:48;9.25;;;2.55;;
43662;SDS011;74813;56.104;40.358;2024-03-06T04:57:21;11.70;;;2.22;;
43662;SDS011;74813;56.104;40.358;2024-03-06T04:59:53;11.73;;;2.08;;
43662;SDS011;74813;56.104;40.358;2024-03-06T05:02:25;12.38;;;3.08;;
43662;SDS011;74813;56.104;40.358;2024-03-06T05:04:58;17.83;;;3.85;;
43662;SDS011;74813;56.104;40.358;2024-03-06T05:07:30;13.88;;;3.08;;
43662;SDS011;74813;56.104;40.358;2024-03-06T05:10:03;37.40;;;21.98;;
43662;SDS011;74813;56.104;40.358;2024-03-06T05:12:36;11.48;;;3.35;;
43662;SDS011;74813;56.104;40.358;2024-03-06T05:15:09;13.73;;;2.95;;
43662;SDS011;74813;56.104;40.358;2024-03-06T05:17:42;15.20;;;2.97;;
43662;SDS011;74813;56.104;40.358;2024-03-06T05:20:15;11.65;;;2.95;;
43662;SDS011;74813;56.104;40.358;2024-03-06T05:22:47;11.35;;;2.72;;
43662;SDS011;74813;56.104;40.358;2024-03-06T05:25:19;11.60;;;2.45;;
43662;SDS011;74813;56.104;40.358;2024-03-06T05:27:52;8.80;;;1.95;;
43662;SDS011;74813;56.104;40.358;2024-03-06T05:30:24;12.45;;;2.97;;
43662;SDS011;74813;56.104;40.358;2024-03-06T05:32:57;14.93;;;3.47;;
43662;SDS011;74813;56.104;40.358;2024-03-06T05:35:29;14.70;;;2.30;;
43662;SDS011;74813;56.104;40.358;2024-03-06T05:38:01;12.45;;;2.95;;
43662;SDS011;74813;56.104;40.358;2024-03-06T05:40:34;15.13;;;3.53;;
43662;SDS011;74813;56.104;40.358;2024-03-06T05:43:06;13.02;;;4.68;;
43662;SDS011;74813;56.104;40.358;2024-03-06T05:45:38;8.07;;;2.50;;
43662;SDS011;74813;56.104;40.358;2024-03-06T05:48:11;7.53;;;1.70;;
43662;SDS011;74813;56.104;40.358;2024-03-06T05:50:43;9.93;;;2.05;;
43662;SDS011;74813;56.104;40.358;2024-03-06T05:53:15;13.38;;;2.85;;
43662;SDS011;74813;56.104;40.358;2024-03-06T05:55:48;10.63;;;2.58;;
43662;SDS011;74813;56.104;40.358;2024-03-06T05:58:20;10.48;;;2.58;;
43662;SDS011;74813;56.104;40.358;2024-03-06T06:00:52;11.63;;;2.55;;
43662;SDS011;74813;56.104;40.358;2024-03-06T06:03:25;10.73;;;2.15;;
43662;SDS011;74813;56.104;40.358;2024-03-06T06:05:57;10.65;;;2.10;;
43662;SDS011;74813;56.104;40.358;2024-03-06T06:08:30;8.20;;;2.53;;
43662;SDS011;74813;56.104;40.358;2024-03-06T06:11:02;11.27;;;2.72;;
43662;SDS011;74813;56.104;40.358;2024-03-06T06:13:35;7.25;;;2.15;;
43662;SDS011;74813;56.104;40.358;2024-03-06T06:16:07;10.15;;;2.10;;
43662;SDS011;74813;56.104;40.358;2024-03-06T06:18:40;8.25;;;2.47;;
43662;SDS011;74813;56.104;40.358;2024-03-06T06:21:13;14.60;;;2.50;;
43662;SDS011;74813;56.104;40.358;2024-03-06T06:23:45;11.20;;;2.05;;
43662;SDS011;74813;56.104;40.358;2024-03-06T06:26:17;11.70;;;2.53;;
43662;SDS011;74813;56.104;40.358;2024-03-06T06:28:50;14.02;;;2.50;;
43662;SDS011;74813;56.104;40.358;2024-03-06T06:31:22;9.43;;;2.65;;
43662;SDS011;74813;56.104;40.358;2024-03-06T06:33:55;11.70;;;2.53;;
43662;SDS011;74813;56.104;40.358;2024-03-06T06:36:28;12.00;;;2.53;;
43662;SDS011;74813;56.104;40.358;2024-03-06T06:39:00;16.38;;;2.80;;
43662;SDS011;74813;56.104;40.358;2024-03-06T06:41:32;11.52;;;2.88;;
43662;SDS011;74813;56.104;40.358;2024-03-06T06:44:05;7.38;;;1.65;;
43662;SDS011;74813;56.104;40.358;2024-03-06T06:46:38;10.77;;;2.55;;
43662;SDS011;74813;56.104;40.358;2024-03-06T06:49:11;15.77;;;2.70;;
43662;SDS011;74813;56.104;40.358;2024-03-06T06:51:43;11.45;;;2.67;;
43662;SDS011;74813;56.104;40.358;2024-03-06T06:54:16;14.80;;;3.13;;
43662;SDS011;74813;56.104;40.358;2024-03-06T06:56:48;14.38;;;2.88;;
43662;SDS011;74813;56.104;40.358;2024-03-06T06:59:20;12.15;;;3.05;;
43662;SDS011;74813;56.104;40.358;2024-03-06T07:01:53;13.90;;;2.38;;
43662;SDS011;74813;56.104;40.358;2024-03-06T07:04:25;7.75;;;2.05;;
43662;SDS011;74813;56.104;40.358;2024-03-06T07:06:58;15.43;;;2.58;;
43662;SDS011;74813;56.104;40.358;2024-03-06T07:09:30;18.42;;;4.70;;
43662;SDS011;74813;56.104;40.358;2024-03-06T07:12:03;18.55;;;3.05;;
43662;SDS011;74813;56.104;40.358;2024-03-06T07:14:35;7.53;;;2.70;;
43662;SDS011;74813;56.104;40.358;2024-03-06T07:17:08;15.82;;;2.95;;
43662;SDS011;74813;56.104;40.358;2024-03-06T07:19:40;8.13;;;2.95;;
43662;SDS011;74813;56.104;40.358;2024-03-06T07:22:12;9.20;;;2.30;;
43662;SDS011;74813;56.104;40.358;2024-03-06T07:24:45;13.68;;;2.38;;
43662;SDS011;74813;56.104;40.358;2024-03-06T07:27:17;12.07;;;2.40;;
43662;SDS011;74813;56.104;40.358;2024-03-06T07:29:50;14.55;;;2.53;;
43662;SDS011;74813;56.104;40.358;2024-03-06T07:32:22;9.40;;;2.20;;
43662;SDS011;74813;56.104;40.358;2024-03-06T07:34:55;8.55;;;2.35;;
43662;SDS011;74813;56.104;40.358;2024-03-06T07:37:27;14.23;;;3.20;;
43662;SDS011;74813;56.104;40.358;2024-03-06T07:39:59;9.63;;;2.38;;
43662;SDS011;74813;56.104;40.358;2024-03-06T07:42:32;11.30;;;3.65;;
43662;SDS011;74813;56.104;40.358;2024-03-06T07:45:05;11.13;;;3.63;;
43662;SDS011;74813;56.104;40.358;2024-03-06T07:47:38;13.98;;;3.17;;
43662;SDS011;74813;56.104;40.358;2024-03-06T07:50:10;11.95;;;2.42;;
43662;SDS011;74813;56.104;40.358;2024-03-06T07:52:42;13.52;;;2.10;;
43662;SDS011;74813;56.104;40.358;2024-03-06T07:55:15;14.48;;;3.45;;
43662;SDS011;74813;56.104;40.358;2024-03-06T07:57:47;10.13;;;2.55;;
43662;SDS011;74813;56.104;40.358;2024-03-06T08:00:20;10.75;;;3.58;;
43662;SDS011;74813;56.104;40.358;2024-03-06T08:02:53;14.52;;;3.25;;
43662;SDS011;74813;56.104;40.358;2024-03-06T08:05:25;12.57;;;3.00;;
43662;SDS011;74813;56.104;40.358;2024-03-06T08:07:57;8.98;;;2.30;;
43662;SDS011;74813;56.104;40.358;2024-03-06T08:10:30;6.57;;;2.05;;
43662;SDS011;74813;56.104;40.358;2024-03-06T08:13:02;9.98;;;2.60;;
43662;SDS011;74813;56.104;40.358;2024-03-06T08:15:35;14.55;;;2.85;;
43662;SDS011;74813;56.104;40.358;2024-03-06T08:18:08;8.90;;;2.65;;
43662;SDS011;74813;56.104;40.358;2024-03-06T08:20:40;12.95;;;2.80;;
43662;SDS011;74813;56.104;40.358;2024-03-06T08:23:13;8.75;;;1.90;;
43662;SDS011;74813;56.104;40.358;2024-03-06T08:25:45;10.35;;;1.98;;
43662;SDS011;74813;56.104;40.358;2024-03-06T08:28:18;8.98;;;2.10;;
43662;SDS011;74813;56.104;40.358;2024-03-06T08:30:51;13.75;;;2.58;;
43662;SDS011;74813;56.104;40.358;2024-03-06T08:33:23;11.10;;;2.53;;
43662;SDS011;74813;56.104;40.358;2024-03-06T08:35:56;8.52;;;2.22;;
43662;SDS011;74813;56.104;40.358;2024-03-06T08:38:28;10.95;;;2.88;;
43662;SDS011;74813;56.104;40.358;2024-03-06T08:41:01;6.05;;;1.77;;
43662;SDS011;74813;56.104;40.358;2024-03-06T08:43:33;7.43;;;2.00;;
43662;SDS011;74813;56.104;40.358;2024-03-06T08:46:06;7.57;;;1.92;;
43662;SDS011;74813;56.104;40.358;2024-03-06T08:48:38;8.90;;;1.83;;
43662;SDS011;74813;56.104;40.358;2024-03-06T08:51:10;7.07;;;1.88;;
43662;SDS011;74813;56.104;40.358;2024-03-06T08:53:43;7.68;;;1.65;;
43662;SDS011;74813;56.104;40.358;2024-03-06T08:56:15;7.68;;;1.60;;
43662;SDS011;74813;56.104;40.358;2024-03-06T08:58:47;10.55;;;2.00;;
43662;SDS011;74813;56.104;40.358;2024-03-06T09:01:20;7.07;;;1.90;;
43662;SDS011;74813;56.104;40.358;2024-03-06T09:03:52;7.50;;;1.33;;
43662;SDS011;74813;56.104;40.358;2024-03-06T09:06:24;8.48;;;1.70;;
43662;SDS011;74813;56.104;40.358;2024-03-06T09:08:57;5.68;;;1.10;;
43662;SDS011;74813;56.104;40.358;2024-03-06T09:11:29;5.15;;;1.10;;
43662;SDS011;74813;56.104;40.358;2024-03-06T09:14:01;11.23;;;1.83;;
43662;SDS011;74813;56.104;40.358;2024-03-06T09:16:34;6.57;;;1.30;;
43662;SDS011;74813;56.104;40.358;2024-03-06T09:19:07;5.80;;;1.30;;
43662;SDS011;74813;56.104;40.358;2024-03-06T09:21:39;5.50;;;0.93;;
43662;SDS011;74813;56.104;40.358;2024-03-06T09:24:12;7.18;;;2.08;;
43662;SDS011;74813;56.104;40.358;2024-03-06T09:26:44;9.02;;;1.35;;
43662;SDS011;74813;56.104;40.358;2024-03-06T09:29:17;3.00;;;1.15;;
43662;SDS011;74813;56.104;40.358;2024-03-06T09:31:49;11.00;;;1.65;;
43662;SDS011;74813;56.104;40.358;2024-03-06T09:34:22;5.97;;;1.33;;
43662;SDS011;74813;56.104;40.358;2024-03-06T09:36:54;8.10;;;1.33;;
43662;SDS011;74813;56.104;40.358;2024-03-06T09:39:26;4.28;;;1.00;;
43662;SDS011;74813;56.104;40.358;2024-03-06T09:41:59;10.07;;;2.03;;
43662;SDS011;74813;56.104;40.358;2024-03-06T09:44:31;4.30;;;1.35;;
43662;SDS011;74813;56.104;40.358;2024-03-06T09:47:04;5.65;;;0.98;;
43662;SDS011;74813;56.104;40.358;2024-03-06T09:49:38;4.45;;;0.88;;
43662;SDS011;74813;56.104;40.358;2024-03-06T09:52:12;4.10;;;0.95;;
43662;SDS011;74813;56.104;40.358;2024-03-06T09:54:45;7.88;;;1.15;;
43662;SDS011;74813;56.104;40.358;2024-03-06T09:57:17;5.03;;;0.73;;
43662;SDS011;74813;56.104;40.358;2024-03-06T09:59:50;5.50;;;1.10;;
43662;SDS011;74813;56.104;40.358;2024-03-06T10:05:04;3.42;;;1.02;;
43662;SDS011;74813;56.104;40.358;2024-03-06T10:07:37;2.53;;;0.70;;
43662;SDS011;74813;56.104;40.358;2024-03-06T10:10:09;6.28;;;1.15;;
43662;SDS011;74813;56.104;40.358;2024-03-06T10:12:41;9.15;;;1.13;;
43662;SDS011;74813;56.104;40.358;2024-03-06T10:15:14;4.53;;;0.80;;
43662;SDS011;74813;56.104;40.358;2024-03-06T10:17:46;4.28;;;1.05;;
43662;SDS011;74813;56.104;40.358;2024-03-06T10:22:52;5.55;;;0.98;;
43662;SDS011;74813;56.104;40.358;2024-03-06T10:25:25;5.68;;;1.10;;
43662;SDS011;74813;56.104;40.358;2024-03-06T10:28:08;10.60;;;1.88;;
43662;SDS011;74813;56.104;40.358;2024-03-06T10:30:41;6.53;;;1.10;;
43662;SDS011;74813;56.104;40.358;2024-03-06T10:33:15;6.05;;;0.93;;
43662;SDS011;74813;56.104;40.358;2024-03-06T10:35:49;8.77;;;1.08;;
43662;SDS011;74813;56.104;40.358;2024-03-06T10:38:21;7.22;;;1.00;;
43662;SDS011;74813;56.104;40.358;2024-03-06T10:40:56;7.18;;;1.30;;
43662;SDS011;74813;56.104;40.358;2024-03-06T10:43:29;6.45;;;1.30;;
43662;SDS011;74813;56.104;40.358;2024-03-06T10:46:04;5.45;;;1.20;;
43662;SDS011;74813;56.104;40.358;2024-03-06T10:48:42;7.70;;;1.13;;
43662;SDS011;74813;56.104;40.358;2024-03-06T10:51:15;5.97;;;1.52;;
43662;SDS011;74813;56.104;40.358;2024-03-06T10:53:49;6.22;;;1.25;;
43662;SDS011;74813;56.104;40.358;2024-03-06T10:56:22;4.05;;;1.08;;
43662;SDS011;74813;56.104;40.358;2024-03-06T10:58:55;6.53;;;1.10;;
43662;SDS011;74813;56.104;40.358;2024-03-06T11:01:29;4.85;;;1.17;;
43662;SDS011;74813;56.104;40.358;2024-03-06T11:04:03;6.15;;;1.05;;
43662;SDS011;74813;56.104;40.358;2024-03-06T11:06:37;3.55;;;0.90;;
43662;SDS011;74813;56.104;40.358;2024-03-06T11:09:10;3.90;;;1.02;;
43662;SDS011;74813;56.104;40.358;2024-03-06T11:11:49;3.67;;;0.70;;
43662;SDS011;74813;56.104;40.358;2024-03-06T11:14:23;4.88;;;0.90;;
43662;SDS011;74813;56.104;40.358;2024-03-06T11:17:03;3.83;;;1.00;;
43662;SDS011;74813;56.104;40.358;2024-03-06T11:28:20;3.78;;;0.73;;
43662;SDS011;74813;56.104;40.358;2024-03-06T11:31:00;3.45;;;0.80;;
43662;SDS011;74813;56.104;40.358;2024-03-06T11:36:15;2.55;;;0.50;;
43662;SDS011;74813;56.104;40.358;2024-03-06T11:38:52;3.28;;;0.50;;
43662;SDS011;74813;56.104;40.358;2024-03-06T11:42:11;1.98;;;0.60;;
43662;SDS011;74813;56.104;40.358;2024-03-06T11:44:23;2.38;;;0.50;;
43662;SDS011;74813;56.104;40.358;2024-03-06T11:46:59;3.05;;;0.55;;
43662;SDS011;74813;56.104;40.358;2024-03-06T11:49:36;1.38;;;0.40;;
43662;SDS011;74813;56.104;40.358;2024-03-06T11:52:09;1.20;;;0.40;;
43662;SDS011;74813;56.104;40.358;2024-03-06T11:54:41;3.25;;;0.50;;
43662;SDS011;74813;56.104;40.358;2024-03-06T11:57:14;10.45;;;0.95;;
43662;SDS011;74813;56.104;40.358;2024-03-06T11:59:46;2.03;;;0.47;;
43662;SDS011;74813;56.104;40.358;2024-03-06T12:02:19;2.65;;;0.43;;
43662;SDS011;74813;56.104;40.358;2024-03-06T12:04:51;3.10;;;0.68;;
43662;SDS011;74813;56.104;40.358;2024-03-06T12:07:23;5.40;;;0.95;;
43662;SDS011;74813;56.104;40.358;2024-03-06T12:09:57;1.98;;;0.50;;
43662;SDS011;74813;56.104;40.358;2024-03-06T12:12:29;1.98;;;0.40;;
43662;SDS011;74813;56.104;40.358;2024-03-06T12:15:03;1.10;;;0.40;;
43662;SDS011;74813;56.104;40.358;2024-03-06T12:17:44;3.50;;;0.80;;
43662;SDS011;74813;56.104;40.358;2024-03-06T12:20:17;2.92;;;0.60;;
43662;SDS011;74813;56.104;40.358;2024-03-06T12:22:51;1.30;;;0.40;;
43662;SDS011;74813;56.104;40.358;2024-03-06T12:25:25;2.55;;;0.50;;
43662;SDS011;74813;56.104;40.358;2024-03-06T12:28:06;3.15;;;0.70;;
43662;SDS011;74813;56.104;40.358;2024-03-06T12:30:43;5.95;;;1.25;;
43662;SDS011;74813;56.104;40.358;2024-03-06T12:33:16;5.05;;;0.70;;
43662;SDS011;74813;56.104;40.358;2024-03-06T12:35:59;4.00;;;0.50;;
43662;SDS011;74813;56.104;40.358;2024-03-06T12:38:38;2.25;;;0.60;;
43662;SDS011;74813;56.104;40.358;2024-03-06T12:41:11;2.80;;;0.55;;
43662;SDS011;74813;56.104;40.358;2024-03-06T12:43:43;5.35;;;0.82;;
43662;SDS011;74813;56.104;40.358;2024-03-06T12:46:16;3.28;;;0.60;;
43662;SDS011;74813;56.104;40.358;2024-03-06T12:48:48;2.65;;;0.70;;
43662;SDS011;74813;56.104;40.358;2024-03-06T12:51:21;2.45;;;0.60;;
43662;SDS011;74813;56.104;40.358;2024-03-06T12:53:53;3.45;;;0.70;;
43662;SDS011;74813;56.104;40.358;2024-03-06T12:56:26;4.80;;;0.70;;
43662;SDS011;74813;56.104;40.358;2024-03-06T12:58:58;4.25;;;0.70;;
43662;SDS011;74813;56.104;40.358;2024-03-06T13:01:30;4.53;;;0.90;;
43662;SDS011;74813;56.104;40.358;2024-03-06T13:04:03;2.63;;;0.60;;
43662;SDS011;74813;56.104;40.358;2024-03-06T13:06:35;2.45;;;0.68;;
43662;SDS011;74813;56.104;40.358;2024-03-06T13:09:08;3.67;;;0.90;;
43662;SDS011;74813;56.104;40.358;2024-03-06T13:11:40;1.95;;;0.60;;
43662;SDS011;74813;56.104;40.358;2024-03-06T13:14:13;2.67;;;0.80;;
43662;SDS011;74813;56.104;40.358;2024-03-06T13:16:45;3.08;;;0.75;;
43662;SDS011;74813;56.104;40.358;2024-03-06T13:19:18;2.67;;;0.60;;
43662;SDS011;74813;56.104;40.358;2024-03-06T13:21:50;3.47;;;0.63;;
43662;SDS011;74813;56.104;40.358;2024-03-06T13:24:22;3.13;;;0.77;;
43662;SDS011;74813;56.104;40.358;2024-03-06T13:26:55;3.10;;;0.68;;
43662;SDS011;74813;56.104;40.358;2024-03-06T13:29:27;2.53;;;0.70;;
43662;SDS011;74813;56.104;40.358;2024-03-06T13:31:59;4.25;;;0.93;;
43662;SDS011;74813;56.104;40.358;2024-03-06T13:34:32;2.05;;;0.52;;
43662;SDS011;74813;56.104;40.358;2024-03-06T13:37:05;7.97;;;0.70;;
43662;SDS011;74813;56.104;40.358;2024-03-06T13:39:37;2.45;;;0.70;;
43662;SDS011;74813;56.104;40.358;2024-03-06T13:42:09;5.38;;;0.80;;
43662;SDS011;74813;56.104;40.358;2024-03-06T13:44:42;2.40;;;0.82;;
43662;SDS011;74813;56.104;40.358;2024-03-06T13:47:14;2.75;;;0.80;;
43662;SDS011;74813;56.104;40.358;2024-03-06T13:49:47;2.40;;;0.70;;
43662;SDS011;74813;56.104;40.358;2024-03-06T13:52:19;4.15;;;0.70;;
43662;SDS011;74813;56.104;40.358;2024-03-06T13:54:52;3.30;;;0.77;;
43662;SDS011;74813;56.104;40.358;2024-03-06T13:57:24;2.95;;;0.60;;
43662;SDS011;74813;56.104;40.358;2024-03-06T13:59:56;3.75;;;0.60;;
43662;SDS011;74813;56.104;40.358;2024-03-06T14:02:29;2.13;;;0.40;;
43662;SDS011;74813;56.104;40.358;2024-03-06T14:05:01;3.92;;;0.70;;
43662;SDS011;74813;56.104;40.358;2024-03-06T14:07:34;2.25;;;0.40;;
43662;SDS011;74813;56.104;40.358;2024-03-06T14:10:07;1.60;;;0.40;;
43662;SDS011;74813;56.104;40.358;2024-03-06T14:12:40;1.88;;;0.60;;
43662;SDS011;74813;56.104;40.358;2024-03-06T14:15:12;3.80;;;0.80;;
43662;SDS011;74813;56.104;40.358;2024-03-06T14:17:45;3.40;;;0.80;;
43662;SDS011;74813;56.104;40.358;2024-03-06T14:20:17;11.10;;;4.70;;
43662;SDS011;74813;56.104;40.358;2024-03-06T14:22:50;2.95;;;1.02;;
43662;SDS011;74813;56.104;40.358;2024-03-06T14:25:22;3.45;;;0.57;;
43662;SDS011;74813;56.104;40.358;2024-03-06T14:27:55;4.38;;;0.82;;
43662;SDS011;74813;56.104;40.358;2024-03-06T14:30:27;4.05;;;1.20;;
43662;SDS011;74813;56.104;40.358;2024-03-06T14:32:59;7.45;;;1.40;;
43662;SDS011;74813;56.104;40.358;2024-03-06T14:35:32;7.15;;;1.38;;
43662;SDS011;74813;56.104;40.358;2024-03-06T14:38:04;7.15;;;1.17;;
43662;SDS011;74813;56.104;40.358;2024-03-06T14:40:37;7.22;;;1.00;;
43662;SDS011;74813;56.104;40.358;2024-03-06T14:43:09;5.05;;;1.30;;
43662;SDS011;74813;56.104;40.358;2024-03-06T14:45:41;3.90;;;0.63;;
43662;SDS011;74813;56.104;40.358;2024-03-06T14:48:14;5.03;;;0.88;;
43662;SDS011;74813;56.104;40.358;2024-03-06T14:50:46;5.22;;;0.80;;
43662;SDS011;74813;56.104;40.358;2024-03-06T14:53:19;3.42;;;0.70;;
43662;SDS011;74813;56.104;40.358;2024-03-06T14:55:51;3.40;;;0.60;;
43662;SDS011;74813;56.104;40.358;2024-03-06T14:58:24;5.90;;;0.88;;
43662;SDS011;74813;56.104;40.358;2024-03-06T15:00:56;2.42;;;0.60;;
43662;SDS011;74813;56.104;40.358;2024-03-06T15:03:28;5.10;;;0.70;;
43662;SDS011;74813;56.104;40.358;2024-03-06T15:06:01;5.55;;;0.77;;
43662;SDS011;74813;56.104;40.358;2024-03-06T15:08:33;6.47;;;0.93;;
43662;SDS011;74813;56.104;40.358;2024-03-06T15:11:06;3.65;;;0.77;;
43662;SDS011;74813;56.104;40.358;2024-03-06T15:13:39;7.15;;;2.03;;
43662;SDS011;74813;56.104;40.358;2024-03-06T15:16:11;3.63;;;0.90;;
43662;SDS011;74813;56.104;40.358;2024-03-06T15:18:43;5.03;;;1.02;;
43662;SDS011;74813;56.104;40.358;2024-03-06T15:21:16;15.02;;;3.38;;